createdAt,value
2018-03-15T00:00:49.073Z,99309.09
2018-03-15T00:03:22.139Z,99300.64
2018-03-15T00:05:49.785Z,99303.20
2018-03-15T00:08:17.417Z,99296.88
2018-03-15T00:10:45.069Z,99297.78
2018-03-15T00:13:12.679Z,99304.12
2018-03-15T00:15:40.342Z,99298.70
2018-03-15T00:18:07.969Z,99302.73
2018-03-15T00:20:35.630Z,99300.50
2018-03-15T00:23:03.236Z,99303.64
2018-03-15T00:25:30.929Z,99301.52
2018-03-15T00:27:58.545Z,99299.05
2018-03-15T00:30:26.223Z,99291.81
2018-03-15T00:32:53.902Z,99297.29
2018-03-15T00:35:21.550Z,99299.20
2018-03-15T00:37:49.165Z,99300.84
2018-03-15T00:40:16.804Z,99298.34
2018-03-15T00:42:44.476Z,99302.68
2018-03-15T00:45:12.125Z,99293.23
2018-03-15T00:47:39.796Z,99298.70
2018-03-15T00:50:07.461Z,99293.19
2018-03-15T00:52:35.085Z,99292.88
2018-03-15T00:55:02.749Z,99289.21
2018-03-15T00:57:30.354Z,99290.74
2018-03-15T00:59:58.006Z,99287.03
2018-03-15T01:02:25.624Z,99289.59
2018-03-15T01:04:53.269Z,99281.98
2018-03-15T01:07:20.874Z,99284.96
2018-03-15T01:09:48.531Z,99277.95
2018-03-15T01:12:16.156Z,99274.14
2018-03-15T01:14:43.811Z,99272.05
2018-03-15T01:17:11.583Z,99269.85
2018-03-15T01:19:39.233Z,99263.53
2018-03-15T01:22:06.835Z,99258.55
2018-03-15T01:24:34.485Z,99260.00
2018-03-15T01:27:02.096Z,99259.14
2018-03-15T01:29:29.755Z,99255.34
2018-03-15T01:31:57.352Z,99257.86
2018-03-15T01:34:25.016Z,99253.38
2018-03-15T01:36:52.628Z,99251.67
2018-03-15T01:39:20.306Z,99241.56
2018-03-15T01:41:47.906Z,99247.02
2018-03-15T01:44:15.552Z,99238.53
2018-03-15T01:46:43.185Z,99232.23
2018-03-15T01:49:10.892Z,99236.42
2018-03-15T01:51:38.500Z,99226.73
2018-03-15T01:54:06.104Z,99208.99
2018-03-15T01:56:33.747Z,99209.16
2018-03-15T01:59:01.352Z,99197.29
2018-03-15T02:01:28.993Z,99194.45
2018-03-15T02:03:56.603Z,99184.97
2018-03-15T02:06:24.291Z,99179.02
2018-03-15T02:08:51.922Z,99181.13
2018-03-15T02:11:19.564Z,99175.45
2018-03-15T02:13:47.178Z,99178.50
2018-03-15T02:16:14.830Z,99178.18
2018-03-15T02:18:42.432Z,99172.29
2018-03-15T02:21:10.091Z,99161.25
2018-03-15T02:23:37.704Z,99156.61
2018-03-15T02:26:05.388Z,99159.19
2018-03-15T02:28:33.000Z,99152.06
2018-03-15T02:31:00.675Z,99155.87
2018-03-15T02:33:28.278Z,99149.28
2018-03-15T02:35:55.941Z,99147.19
2018-03-15T02:38:23.576Z,99135.18
2018-03-15T02:40:51.222Z,99138.91
2018-03-15T02:43:18.829Z,99138.67
2018-03-15T02:45:46.487Z,99132.87
2018-03-15T02:48:14.100Z,99146.20
2018-03-15T02:50:41.748Z,99141.17
2018-03-15T02:53:09.389Z,99147.41
2018-03-15T02:55:37.049Z,99145.91
2018-03-15T02:58:04.668Z,99143.92
2018-03-15T03:00:32.343Z,99152.76
2018-03-15T03:02:59.960Z,99140.35
2018-03-15T03:05:27.613Z,99145.34
2018-03-15T03:07:55.746Z,99137.09
2018-03-15T03:10:23.408Z,99126.44
2018-03-15T03:12:51.020Z,99126.69
2018-03-15T03:15:18.676Z,99114.30
2018-03-15T03:17:46.276Z,99109.69
2018-03-15T03:20:14.144Z,99108.31
2018-03-15T03:22:41.773Z,99096.52
2018-03-15T03:25:09.435Z,99097.33
2018-03-15T03:27:37.037Z,99090.84
2018-03-15T03:30:04.710Z,99097.97
2018-03-15T03:32:32.311Z,99095.62
2018-03-15T03:35:00.107Z,99093.86
2018-03-15T03:37:27.733Z,99087.09
2018-03-15T03:39:55.394Z,99092.71
2018-03-15T03:42:23.027Z,99084.74
2018-03-15T03:44:50.684Z,99088.32
2018-03-15T03:47:18.316Z,99079.27
2018-03-15T03:49:45.977Z,99065.64
2018-03-15T03:52:13.588Z,99064.92
2018-03-15T03:54:41.238Z,99060.03
2018-03-15T03:57:08.857Z,99056.91
2018-03-15T03:59:36.468Z,99048.89
2018-03-15T04:02:04.120Z,99054.74
2018-03-15T04:04:31.727Z,99056.63
2018-03-15T04:06:59.376Z,99053.34
2018-03-15T04:09:26.991Z,99048.17
2018-03-15T04:11:54.641Z,99051.70
2018-03-15T04:14:22.264Z,99048.47
2018-03-15T04:16:49.928Z,99045.66
2018-03-15T04:19:17.532Z,99041.53
2018-03-15T04:21:45.252Z,99036.43
2018-03-15T04:24:12.861Z,99028.09
2018-03-15T04:26:40.500Z,99020.00
2018-03-15T04:29:08.115Z,99025.47
2018-03-15T04:31:35.764Z,99021.70
2018-03-15T04:34:03.389Z,99017.81
2018-03-15T04:36:31.040Z,99026.66
2018-03-15T04:38:58.665Z,99022.06
2018-03-15T04:41:26.305Z,99023.58
2018-03-15T04:43:53.929Z,99013.56
2018-03-15T04:46:21.575Z,99016.73
2018-03-15T04:48:49.187Z,99010.44
2018-03-15T04:51:16.837Z,99001.23
2018-03-15T04:53:44.440Z,98990.25
2018-03-15T04:56:12.092Z,98982.84
2018-03-15T04:58:39.717Z,98971.73
2018-03-15T05:01:07.384Z,98969.96
2018-03-15T05:03:35.007Z,98962.32
2018-03-15T05:06:02.651Z,98963.34
2018-03-15T05:08:30.268Z,98949.95
2018-03-15T05:10:57.924Z,98934.89
2018-03-15T05:13:25.552Z,98942.72
2018-03-15T05:15:53.195Z,98945.70
2018-03-15T05:18:20.797Z,98961.28
2018-03-15T05:20:48.457Z,98955.03
2018-03-15T05:23:16.182Z,98964.27
2018-03-15T05:25:43.820Z,98953.95
2018-03-15T05:28:11.427Z,98962.73
2018-03-15T05:30:39.084Z,98964.06
2018-03-15T05:33:06.704Z,98952.54
2018-03-15T05:35:34.375Z,98951.34
2018-03-15T05:38:01.987Z,98945.22
2018-03-15T05:40:29.633Z,98921.86
2018-03-15T05:42:57.246Z,98915.02
2018-03-15T05:45:24.888Z,98918.83
2018-03-15T05:47:52.508Z,98916.67
2018-03-15T05:50:20.157Z,98905.81
2018-03-15T05:52:47.786Z,98918.23
2018-03-15T05:55:15.435Z,98921.64
2018-03-15T05:57:43.075Z,98923.70
2018-03-15T06:00:10.788Z,98934.63
2018-03-15T06:02:38.411Z,98935.30
2018-03-15T06:05:06.017Z,98929.47
2018-03-15T06:07:33.708Z,98935.56
2018-03-15T06:10:01.331Z,98935.33
2018-03-15T06:12:28.989Z,98939.13
2018-03-15T06:14:56.598Z,98933.20
2018-03-15T06:17:24.253Z,98928.46
2018-03-15T06:19:51.857Z,98914.45
2018-03-15T06:22:19.525Z,98913.14
2018-03-15T06:24:47.138Z,98901.28
2018-03-15T06:27:14.784Z,98903.56
2018-03-15T06:29:42.398Z,98906.17
2018-03-15T06:32:10.078Z,98898.93
2018-03-15T06:34:37.720Z,98903.49
2018-03-15T06:37:05.381Z,98907.03
2018-03-15T06:39:33.014Z,98905.52
2018-03-15T06:42:00.698Z,98899.44
2018-03-15T06:44:28.295Z,98890.88
2018-03-15T06:46:55.948Z,98887.93
2018-03-15T06:49:23.708Z,98886.14
2018-03-15T06:51:51.358Z,98886.78
2018-03-15T06:54:18.973Z,98893.87
2018-03-15T06:56:46.620Z,98894.80
2018-03-15T06:59:14.237Z,98891.52
2018-03-15T07:01:41.919Z,98888.75
2018-03-15T07:04:09.531Z,98889.44
2018-03-15T07:06:37.176Z,98874.48
2018-03-15T07:09:04.917Z,98876.07
2018-03-15T07:11:32.566Z,98880.95
2018-03-15T07:14:00.183Z,98887.70
2018-03-15T07:16:27.847Z,98869.21
2018-03-15T07:18:55.457Z,98886.03
2018-03-15T07:21:23.111Z,98870.96
2018-03-15T07:23:50.724Z,98877.23
2018-03-15T07:26:18.386Z,98875.88
2018-03-15T07:28:46.001Z,98873.52
2018-03-15T07:31:13.652Z,98867.70
2018-03-15T07:33:41.567Z,98860.23
2018-03-15T07:36:09.271Z,98871.58
2018-03-15T07:38:36.888Z,98867.33
2018-03-15T07:41:04.532Z,98862.67
2018-03-15T07:43:32.193Z,98858.80
2018-03-15T07:45:59.848Z,98859.35
2018-03-15T07:48:27.455Z,98860.59
2018-03-15T07:50:55.109Z,98860.45
2018-03-15T07:53:22.717Z,98857.25
2018-03-15T07:55:50.401Z,98854.03
2018-03-15T07:58:18.013Z,98860.84
2018-03-15T08:00:45.666Z,98863.06
2018-03-15T08:03:13.282Z,98860.67
2018-03-15T08:05:40.934Z,98863.72
2018-03-15T08:08:08.551Z,98871.41
2018-03-15T08:10:36.164Z,98850.30
2018-03-15T08:13:03.805Z,98861.28
2018-03-15T08:15:31.416Z,98855.61
2018-03-15T08:17:59.074Z,98842.23
2018-03-15T08:20:26.677Z,98847.58
2018-03-15T08:22:54.335Z,98834.11
2018-03-15T08:25:21.947Z,98824.30
2018-03-15T08:27:49.596Z,98825.77
2018-03-15T08:30:17.232Z,98827.78
2018-03-15T08:32:44.890Z,98821.09
2018-03-15T08:35:12.553Z,98829.55
2018-03-15T08:37:40.226Z,98828.13
2018-03-15T08:40:07.832Z,98829.81
2018-03-15T08:42:35.493Z,98829.16
2018-03-15T08:45:03.119Z,98818.31
2018-03-15T08:47:30.788Z,98819.02
2018-03-15T08:49:58.409Z,98823.31
2018-03-15T08:52:26.069Z,98815.41
2018-03-15T08:54:53.676Z,98821.05
2018-03-15T08:57:21.389Z,98803.83
2018-03-15T08:59:49.073Z,98815.34
2018-03-15T09:02:16.736Z,98795.23
2018-03-15T09:04:44.495Z,98790.63
2018-03-15T09:07:12.136Z,98785.06
2018-03-15T09:09:39.755Z,98781.40
2018-03-15T09:12:07.413Z,98773.13
2018-03-15T09:14:35.072Z,98778.19
2018-03-15T09:17:02.783Z,98766.35
2018-03-15T09:19:30.370Z,98771.97
2018-03-15T09:21:58.033Z,98770.84
2018-03-15T09:24:25.649Z,98774.86
2018-03-15T09:26:53.308Z,98760.85
2018-03-15T09:29:20.949Z,98746.40
2018-03-15T09:31:48.601Z,98752.96
2018-03-15T09:34:16.304Z,98759.69
2018-03-15T09:36:43.962Z,98756.13
2018-03-15T09:39:11.593Z,98755.33
2018-03-15T09:41:39.284Z,98753.44
2018-03-15T09:44:06.913Z,98744.28
2018-03-15T09:46:34.607Z,98739.50
2018-03-15T09:49:02.232Z,98741.06
2018-03-15T09:51:29.900Z,98738.16
2018-03-15T09:53:57.524Z,98729.42
2018-03-15T09:56:25.478Z,98727.84
2018-03-15T09:58:53.093Z,98736.34
2018-03-15T10:01:20.922Z,98725.87
2018-03-15T10:03:48.548Z,98743.23
2018-03-15T10:06:16.242Z,98722.88
2018-03-15T10:08:43.882Z,98721.18
2018-03-15T10:11:11.621Z,98711.97
2018-03-15T10:13:39.305Z,98707.83
2018-03-15T10:16:06.985Z,98715.04
2018-03-15T10:18:34.682Z,98717.02
2018-03-15T10:21:02.313Z,98716.32
2018-03-15T10:23:29.984Z,98712.34
2018-03-15T10:25:57.637Z,98705.31
2018-03-15T10:28:25.377Z,98684.25
2018-03-15T10:30:53.012Z,98680.65
2018-03-15T10:33:26.261Z,98683.73
2018-03-15T10:35:54.000Z,98678.20
2018-03-15T10:38:21.692Z,98667.87
2018-03-15T10:40:49.319Z,98655.59
2018-03-15T10:43:16.992Z,98650.26
2018-03-15T10:45:44.632Z,98647.36
2018-03-15T10:48:12.304Z,98651.34
2018-03-15T10:50:39.947Z,98649.12
2018-03-15T10:53:07.632Z,98653.02
2018-03-15T10:55:35.274Z,98664.48
2018-03-15T10:58:02.949Z,98665.39
2018-03-15T11:00:36.085Z,98665.23
2018-03-15T11:03:09.389Z,98668.16
2018-03-15T11:05:42.534Z,98670.20
2018-03-15T11:08:25.760Z,98666.27
2018-03-15T11:10:53.408Z,98660.73
2018-03-15T11:13:21.100Z,98658.69
2018-03-15T11:15:48.744Z,98667.48
2018-03-15T11:18:16.419Z,98664.12
2018-03-15T11:20:44.080Z,98672.77
2018-03-15T11:23:11.772Z,98662.28
2018-03-15T11:25:39.419Z,98664.02
2018-03-15T11:28:07.103Z,98658.28
2018-03-15T11:30:34.732Z,98650.89
2018-03-15T11:33:02.424Z,98641.09
2018-03-15T11:35:30.057Z,98634.70
2018-03-15T11:37:57.780Z,98630.67
2018-03-15T11:40:25.401Z,98626.30
2018-03-15T11:42:53.133Z,98619.54
2018-03-15T11:45:20.773Z,98617.77
2018-03-15T11:47:48.453Z,98603.82
2018-03-15T11:50:16.092Z,98595.59
2018-03-15T11:52:43.761Z,98598.36
2018-03-15T11:55:11.415Z,98591.67
2018-03-15T11:57:39.092Z,98585.23
2018-03-15T12:00:06.747Z,98582.93
2018-03-15T12:02:34.431Z,98584.95
2018-03-15T12:05:02.073Z,98575.37
2018-03-15T12:07:29.749Z,98563.33
2018-03-15T12:09:57.402Z,98558.35
2018-03-15T12:12:25.069Z,98556.09
2018-03-15T12:14:52.691Z,98547.28
2018-03-15T12:17:20.372Z,98540.39
2018-03-15T12:19:48.016Z,98524.42
2018-03-15T12:22:15.669Z,98524.08
2018-03-15T12:24:43.278Z,98527.72
2018-03-15T12:27:10.989Z,98522.48
2018-03-15T12:29:38.605Z,98525.58
2018-03-15T12:32:06.260Z,98508.11
2018-03-15T12:34:33.871Z,98503.20
2018-03-15T12:37:01.524Z,98500.78
2018-03-15T12:39:29.140Z,98488.11
2018-03-15T12:41:56.779Z,98491.43
2018-03-15T12:44:24.390Z,98494.31
2018-03-15T12:46:52.097Z,98492.45
2018-03-15T12:49:19.713Z,98482.02
2018-03-15T12:51:47.337Z,98479.84
2018-03-15T12:54:15.025Z,98467.68
2018-03-15T12:56:42.640Z,98465.54
2018-03-15T12:59:10.293Z,98458.86
2018-03-15T13:01:37.936Z,98458.92
2018-03-15T13:04:05.580Z,98458.42
2018-03-15T13:06:33.185Z,98451.16
2018-03-15T13:09:00.861Z,98460.59
2018-03-15T13:11:28.484Z,98455.58
2018-03-15T13:13:56.157Z,98445.27
2018-03-15T13:16:23.776Z,98454.02
2018-03-15T13:18:51.425Z,98454.51
2018-03-15T13:21:19.048Z,98454.02
2018-03-15T13:23:46.693Z,98444.17
2018-03-15T13:26:14.301Z,98448.28
2018-03-15T13:28:41.955Z,98438.73
2018-03-15T13:31:09.568Z,98432.20
2018-03-15T13:33:37.229Z,98423.34
2018-03-15T13:36:04.922Z,98430.62
2018-03-15T13:38:32.572Z,98428.83
2018-03-15T13:41:00.183Z,98434.73
2018-03-15T13:43:27.838Z,98435.59
2018-03-15T13:45:55.448Z,98423.39
2018-03-15T13:48:23.088Z,98430.75
2018-03-15T13:50:50.688Z,98424.95
2018-03-15T13:53:18.341Z,98413.14
2018-03-15T13:55:45.944Z,98413.00
2018-03-15T13:58:13.591Z,98405.89
2018-03-15T14:00:41.205Z,98401.19
2018-03-15T14:03:08.865Z,98412.00
2018-03-15T14:05:36.478Z,98404.15
2018-03-15T14:08:04.145Z,98395.34
2018-03-15T14:10:31.778Z,98404.66
2018-03-15T14:12:59.429Z,98401.48
2018-03-15T14:15:27.068Z,98389.48
2018-03-15T14:17:54.712Z,98388.95
2018-03-15T14:20:22.371Z,98393.37
2018-03-15T14:22:50.012Z,98384.02
2018-03-15T14:25:17.634Z,98381.14
2018-03-15T14:27:45.282Z,98380.45
2018-03-15T14:30:12.889Z,98379.14
2018-03-15T14:32:40.542Z,98384.34
2018-03-15T14:35:08.157Z,98373.44
2018-03-15T14:37:35.818Z,98374.13
2018-03-15T14:40:03.439Z,98381.45
2018-03-15T14:42:31.101Z,98379.50
2018-03-15T14:44:58.701Z,98383.70
2018-03-15T14:47:26.340Z,98393.23
2018-03-15T14:49:53.955Z,98391.91
2018-03-15T14:52:21.571Z,98390.83
2018-03-15T14:54:49.224Z,98388.99
2018-03-15T14:57:16.837Z,98387.00
2018-03-15T14:59:44.504Z,98387.19
2018-03-15T15:02:12.112Z,98395.81
2018-03-15T15:04:39.765Z,98384.41
2018-03-15T15:07:07.375Z,98387.55
2018-03-15T15:09:35.037Z,98378.82
2018-03-15T15:12:02.648Z,98374.62
2018-03-15T15:14:30.333Z,98372.89
2018-03-15T15:16:57.958Z,98385.16
2018-03-15T15:19:25.619Z,98382.63
2018-03-15T15:21:53.284Z,98378.13
2018-03-15T15:24:20.937Z,98378.56
2018-03-15T15:26:48.545Z,98378.17
2018-03-15T15:29:16.196Z,98384.50
2018-03-15T15:31:43.840Z,98379.47
2018-03-15T15:34:11.498Z,98378.95
2018-03-15T15:36:39.106Z,98375.30
2018-03-15T15:39:06.761Z,98381.05
2018-03-15T15:41:34.387Z,98373.38
2018-03-15T15:44:02.122Z,98375.91
2018-03-15T15:46:29.745Z,98376.14
2018-03-15T15:48:57.418Z,98374.44
2018-03-15T15:51:25.028Z,98375.81
2018-03-15T15:53:52.725Z,98373.81
2018-03-15T15:56:20.345Z,98379.32
2018-03-15T15:58:48.032Z,98379.59
2018-03-15T16:01:15.762Z,98381.97
2018-03-15T16:03:43.438Z,98376.11
2018-03-15T16:06:11.098Z,98380.36
2018-03-15T16:08:38.773Z,98376.18
2018-03-15T16:11:06.383Z,98379.69
2018-03-15T16:13:34.072Z,98385.09
2018-03-15T16:16:01.722Z,98382.05
2018-03-15T16:18:29.400Z,98374.72
2018-03-15T16:20:57.012Z,98371.48
2018-03-15T16:23:24.656Z,98356.15
2018-03-15T16:25:52.261Z,98353.49
2018-03-15T16:28:19.904Z,98357.63
2018-03-15T16:30:48.048Z,98368.36
2018-03-15T16:33:19.105Z,98376.48
2018-03-15T16:35:46.720Z,98386.35
2018-03-15T16:38:14.367Z,98369.24
2018-03-15T16:40:41.997Z,98384.15
2018-03-15T16:43:09.720Z,98397.72
2018-03-15T16:45:37.311Z,98391.95
2018-03-15T16:48:04.992Z,98392.40
2018-03-15T16:50:32.598Z,98381.98
2018-03-15T16:53:00.260Z,98391.70
2018-03-15T16:55:27.917Z,98398.91
2018-03-15T16:57:55.582Z,98399.44
2018-03-15T17:00:23.186Z,98413.50
2018-03-15T17:02:50.797Z,98408.42
2018-03-15T17:05:18.452Z,98408.39
2018-03-15T17:07:46.297Z,98416.59
2018-03-15T17:10:13.976Z,98414.83
2018-03-15T17:12:41.598Z,98415.97
2018-03-15T17:15:09.357Z,98414.63
2018-03-15T17:17:36.970Z,98417.42
2018-03-15T17:20:04.628Z,98418.99
2018-03-15T17:22:32.239Z,98414.89
2018-03-15T17:25:00.226Z,98423.13
2018-03-15T17:27:27.841Z,98418.62
2018-03-15T17:29:55.487Z,98422.73
2018-03-15T17:32:23.115Z,98423.05
2018-03-15T17:34:50.775Z,98430.50
2018-03-15T17:37:18.408Z,98432.31
2018-03-15T17:39:46.062Z,98422.95
2018-03-15T17:42:13.679Z,98423.13
2018-03-15T17:44:41.330Z,98420.73
2018-03-15T17:47:08.960Z,98412.45
2018-03-15T17:49:36.634Z,98413.55
2018-03-15T17:52:04.525Z,98412.58
2018-03-15T17:54:32.196Z,98417.41
2018-03-15T17:56:59.827Z,98416.86
2018-03-15T17:59:27.488Z,98417.83
2018-03-15T18:01:55.116Z,98417.38
2018-03-15T18:04:22.788Z,98413.48
2018-03-15T18:06:51.015Z,98411.50
2018-03-15T18:09:18.667Z,98411.23
2018-03-15T18:11:46.320Z,98407.05
2018-03-15T18:14:14.076Z,98405.54
2018-03-15T18:16:41.694Z,98401.77
2018-03-15T18:19:09.344Z,98390.34
2018-03-15T18:21:36.966Z,98397.19
2018-03-15T18:24:04.657Z,98393.31
2018-03-15T18:26:32.272Z,98403.36
2018-03-15T18:28:59.917Z,98418.38
2018-03-15T18:31:27.533Z,98436.73
2018-03-15T18:33:55.250Z,98433.73
2018-03-15T18:36:22.849Z,98436.13
2018-03-15T18:38:50.513Z,98445.73
2018-03-15T18:41:18.117Z,98456.50
2018-03-15T18:43:45.764Z,98456.57
2018-03-15T18:46:13.399Z,98457.45
2018-03-15T18:48:41.040Z,98463.36
2018-03-15T18:51:08.823Z,98471.83
2018-03-15T18:53:36.531Z,98466.84
2018-03-15T18:56:04.148Z,98467.94
2018-03-15T18:58:31.793Z,98474.81
2018-03-15T19:00:59.427Z,98475.63
2018-03-15T19:03:27.108Z,98479.59
2018-03-15T19:05:54.723Z,98476.20
2018-03-15T19:08:22.332Z,98476.64
2018-03-15T19:10:49.986Z,98471.39
2018-03-15T19:13:17.587Z,98468.91
2018-03-15T19:15:45.239Z,98474.90
2018-03-15T19:18:12.845Z,98467.16
2018-03-15T19:20:40.504Z,98481.40
2018-03-15T19:23:08.166Z,98477.17
2018-03-15T19:25:35.831Z,98476.00
2018-03-15T19:28:03.470Z,98480.39
2018-03-15T19:30:31.167Z,98483.20
2018-03-15T19:32:58.775Z,98484.45
2018-03-15T19:35:26.488Z,98487.04
2018-03-15T19:37:54.106Z,98481.87
2018-03-15T19:40:21.772Z,98483.60
2018-03-15T19:42:49.406Z,98476.31
2018-03-15T19:45:17.059Z,98475.91
2018-03-15T19:47:44.668Z,98476.75
2018-03-15T19:50:12.316Z,98482.64
2018-03-15T19:52:39.964Z,98484.34
2018-03-15T19:55:07.629Z,98489.27
2018-03-15T19:57:35.257Z,98498.48
2018-03-15T20:00:02.928Z,98494.56
2018-03-15T20:02:30.585Z,98504.08
2018-03-15T20:04:58.219Z,98504.91
2018-03-15T20:09:59.825Z,98505.63
2018-03-15T20:12:27.444Z,98517.53
2018-03-15T20:14:55.096Z,98511.40
2018-03-15T20:17:22.739Z,98509.27
2018-03-15T20:19:50.408Z,98507.78
2018-03-15T20:25:20.505Z,98517.95
2018-03-15T20:27:53.614Z,98518.97
2018-03-15T20:30:21.309Z,98520.46
2018-03-15T20:32:54.651Z,98528.63
2018-03-15T20:35:22.305Z,98532.00
2018-03-15T20:37:49.929Z,98536.73
2018-03-15T20:40:23.038Z,98537.23
2018-03-15T20:42:50.700Z,98542.73
2018-03-15T20:45:23.903Z,98551.55
2018-03-15T20:50:56.878Z,98567.87
2018-03-15T20:53:24.496Z,98568.80
2018-03-15T20:55:52.165Z,98569.37
2018-03-15T20:58:19.789Z,98567.36
2018-03-15T21:00:47.460Z,98567.08
2018-03-15T21:03:15.088Z,98577.77
2018-03-15T21:05:42.736Z,98578.72
2018-03-15T21:08:10.348Z,98578.98
2018-03-15T21:10:38.034Z,98577.00
2018-03-15T21:13:05.654Z,98575.83
2018-03-15T21:15:33.318Z,98577.48
2018-03-15T21:18:01.168Z,98571.29
2018-03-15T21:20:28.852Z,98569.47
2018-03-15T21:22:56.712Z,98569.20
2018-03-15T21:25:24.368Z,98574.84
2018-03-15T21:27:52.075Z,98568.29
2018-03-15T21:30:19.741Z,98565.88
2018-03-15T21:32:47.353Z,98558.59
2018-03-15T21:35:15.060Z,98563.16
2018-03-15T21:37:42.700Z,98566.63
2018-03-15T21:40:10.349Z,98564.56
2018-03-15T21:42:37.992Z,98564.12
2018-03-15T21:45:05.644Z,98565.53
2018-03-15T21:47:33.278Z,98577.72
2018-03-15T21:50:01.032Z,98571.64
2018-03-15T21:52:28.675Z,98581.34
2018-03-15T21:54:56.349Z,98582.86
2018-03-15T21:57:23.969Z,98583.95
2018-03-15T21:59:51.630Z,98586.30
2018-03-15T22:02:19.332Z,98594.42
2018-03-15T22:04:47.191Z,98596.16
2018-03-15T22:07:15.030Z,98596.51
2018-03-15T22:09:42.722Z,98605.44
2018-03-15T22:12:10.438Z,98600.28
2018-03-15T22:14:38.141Z,98604.91
2018-03-15T22:17:05.971Z,98607.86
2018-03-15T22:19:33.773Z,98608.55
2018-03-15T22:22:01.638Z,98608.81
2018-03-15T22:24:29.317Z,98611.06
2018-03-15T22:26:57.047Z,98609.25
2018-03-15T22:29:24.660Z,98614.39
2018-03-15T22:31:52.319Z,98624.13
2018-03-15T22:34:19.928Z,98625.20
2018-03-15T22:36:47.623Z,98627.13
2018-03-15T22:39:15.248Z,98630.02
2018-03-15T22:41:42.899Z,98630.75
2018-03-15T22:44:10.505Z,98625.95
2018-03-15T22:46:38.168Z,98622.45
2018-03-15T22:49:05.787Z,98617.56
2018-03-15T22:51:33.438Z,98625.09
2018-03-15T22:54:01.045Z,98622.89
2018-03-15T22:56:28.729Z,98637.86
2018-03-15T22:58:56.362Z,98629.98
2018-03-15T23:01:24.037Z,98638.27
2018-03-15T23:03:51.637Z,98639.49
2018-03-15T23:06:19.280Z,98648.84
2018-03-15T23:08:46.902Z,98657.30
2018-03-15T23:11:14.552Z,98664.27
2018-03-15T23:13:42.240Z,98650.69
2018-03-15T23:16:09.876Z,98650.06
2018-03-15T23:18:37.526Z,98654.03
2018-03-15T23:21:05.175Z,98661.13
2018-03-15T23:23:32.802Z,98665.30
2018-03-15T23:26:00.455Z,98673.23
2018-03-15T23:28:28.079Z,98674.19
2018-03-15T23:30:55.747Z,98667.87
2018-03-15T23:33:23.356Z,98670.29
2018-03-15T23:35:51.019Z,98665.05
2018-03-15T23:38:18.633Z,98669.39
2018-03-15T23:40:46.292Z,98666.63
2018-03-15T23:43:13.925Z,98668.77
2018-03-15T23:45:41.586Z,98674.72
2018-03-15T23:48:09.226Z,98673.26
2018-03-15T23:50:36.886Z,98671.26
2018-03-15T23:53:04.513Z,98681.23
2018-03-15T23:55:32.168Z,98682.06
2018-03-15T23:57:59.776Z,98680.48
